createdAt,value
2019-02-02T00:02:04.143Z,99539.70
2019-02-02T00:04:38.866Z,99551.53
2019-02-02T00:07:13.702Z,99547.14
2019-02-02T00:09:48.599Z,99553.48
2019-02-02T00:12:23.537Z,99553.48
2019-02-02T00:14:58.426Z,99554.41
2019-02-02T00:17:33.370Z,99557.91
2019-02-02T00:20:08.924Z,99557.73
2019-02-02T00:22:43.870Z,99555.61
2019-02-02T00:25:18.713Z,99561.14
2019-02-02T00:27:54.748Z,99558.50
2019-02-02T00:30:29.578Z,99565.77
2019-02-02T00:33:04.565Z,99557.49
2019-02-02T00:35:39.300Z,99564.68
2019-02-02T00:38:14.164Z,99565.77
2019-02-02T00:40:48.986Z,99566.48
2019-02-02T00:43:23.836Z,99563.45
2019-02-02T00:45:58.700Z,99566.05
2019-02-02T00:48:33.709Z,99572.02
2019-02-02T00:51:08.576Z,99577.67
2019-02-02T00:53:43.564Z,99580.05
2019-02-02T00:56:19.676Z,99576.11
2019-02-02T00:58:54.421Z,99574.52
2019-02-02T01:01:29.168Z,99568.13
2019-02-02T01:04:04.132Z,99571.12
2019-02-02T01:06:38.861Z,99567.25
2019-02-02T01:09:21.709Z,99572.50
2019-02-02T01:11:56.658Z,99572.50
2019-02-02T01:14:31.539Z,99572.41
2019-02-02T01:17:06.382Z,99573.13
2019-02-02T01:19:41.396Z,99573.55
2019-02-02T01:22:16.232Z,99580.89
2019-02-02T01:24:50.996Z,99583.16
2019-02-02T01:27:25.806Z,99588.52
2019-02-02T01:30:00.772Z,99587.76
2019-02-02T01:32:36.678Z,99590.42
2019-02-02T01:35:12.979Z,99590.48
2019-02-02T01:37:48.226Z,99593.26
2019-02-02T01:40:24.355Z,99595.52
2019-02-02T01:43:00.102Z,99599.91
2019-02-02T01:45:34.948Z,99599.39
2019-02-02T01:48:09.777Z,99594.23
2019-02-02T01:50:44.622Z,99593.14
2019-02-02T01:53:19.442Z,99603.52
2019-02-02T01:55:55.144Z,99605.20
2019-02-02T01:58:29.978Z,99592.57
2019-02-02T02:01:04.770Z,99587.94
2019-02-02T02:03:39.514Z,99588.80
2019-02-02T02:06:14.347Z,99597.36
2019-02-02T02:08:49.350Z,99596.08
2019-02-02T02:11:24.222Z,99599.97
2019-02-02T02:13:58.964Z,99592.92
2019-02-02T02:16:34.013Z,99583.73
2019-02-02T02:19:09.784Z,99582.41
2019-02-02T02:21:44.523Z,99580.60
2019-02-02T02:24:19.323Z,99586.09
2019-02-02T02:26:54.563Z,99593.38
2019-02-02T02:29:29.372Z,99594.92
2019-02-02T02:32:04.322Z,99585.56
2019-02-02T02:34:39.027Z,99590.70
2019-02-02T02:37:18.756Z,99594.02
2019-02-02T02:39:53.604Z,99598.60
2019-02-02T02:42:28.468Z,99604.81
2019-02-02T02:45:03.298Z,99602.13
2019-02-02T02:47:38.480Z,99592.56
2019-02-02T02:50:15.911Z,99591.98
2019-02-02T02:52:50.853Z,99595.08
2019-02-02T02:55:25.552Z,99594.36
2019-02-02T02:58:00.375Z,99586.48
2019-02-02T03:00:35.292Z,99579.48
2019-02-02T03:03:14.956Z,99589.03
2019-02-02T03:05:52.696Z,99598.64
2019-02-02T03:08:27.808Z,99597.34
2019-02-02T03:11:07.738Z,99604.14
2019-02-02T03:13:44.110Z,99598.53
2019-02-02T03:16:19.903Z,99601.59
2019-02-02T03:18:54.698Z,99598.23
2019-02-02T03:21:29.381Z,99597.48
2019-02-02T03:24:04.315Z,99591.71
2019-02-02T03:26:39.037Z,99590.52
2019-02-02T03:29:13.867Z,99591.95
2019-02-02T03:31:49.084Z,99587.73
2019-02-02T03:34:24.787Z,99592.22
2019-02-02T03:36:59.493Z,99604.52
2019-02-02T03:39:36.192Z,99605.98
2019-02-02T03:42:11.135Z,99606.11
2019-02-02T03:44:45.942Z,99612.01
2019-02-02T03:47:26.575Z,99609.22
2019-02-02T03:50:02.119Z,99611.44
2019-02-02T03:52:36.878Z,99612.25
2019-02-02T03:55:14.296Z,99613.84
2019-02-02T03:57:49.016Z,99610.08
2019-02-02T04:00:24.099Z,99609.77
2019-02-02T04:02:58.949Z,99616.48
2019-02-02T04:05:33.887Z,99615.47
2019-02-02T04:08:10.512Z,99620.48
2019-02-02T04:10:45.250Z,99617.98
2019-02-02T04:13:21.612Z,99617.59
2019-02-02T04:15:58.901Z,99619.20
2019-02-02T04:18:36.294Z,99619.04
2019-02-02T04:21:15.641Z,99625.88
2019-02-02T04:23:52.937Z,99621.73
2019-02-02T04:26:30.204Z,99633.61
2019-02-02T04:29:17.355Z,99629.20
2019-02-02T04:31:42.742Z,99633.78
2019-02-02T04:34:17.682Z,99630.84
2019-02-02T04:36:52.636Z,99633.91
2019-02-02T04:39:27.449Z,99627.16
2019-02-02T04:42:02.279Z,99629.78
2019-02-02T04:44:37.074Z,99632.92
2019-02-02T04:47:11.976Z,99631.53
2019-02-02T04:49:46.796Z,99636.63
2019-02-02T04:52:21.646Z,99634.60
2019-02-02T04:54:56.467Z,99639.59
2019-02-02T04:57:31.343Z,99636.98
2019-02-02T05:00:08.902Z,99640.04
2019-02-02T05:02:43.916Z,99644.45
2019-02-02T05:05:18.922Z,99644.10
2019-02-02T05:07:53.869Z,99640.89
2019-02-02T05:10:28.686Z,99647.34
2019-02-02T05:13:03.519Z,99649.81
2019-02-02T05:15:38.391Z,99653.25
2019-02-02T05:18:13.133Z,99659.88
2019-02-02T05:20:47.943Z,99665.98
2019-02-02T05:23:24.063Z,99670.72
2019-02-02T05:25:58.873Z,99674.88
2019-02-02T05:28:34.599Z,99689.61
2019-02-02T05:31:09.687Z,99684.91
2019-02-02T05:33:44.664Z,99691.44
2019-02-02T05:36:19.470Z,99688.41
2019-02-02T05:38:55.189Z,99691.81
2019-02-02T05:41:30.062Z,99692.49
2019-02-02T05:44:04.905Z,99692.49
2019-02-02T05:46:39.713Z,99693.91
2019-02-02T05:49:14.601Z,99694.13
2019-02-02T05:51:49.419Z,99699.87
2019-02-02T05:54:24.273Z,99694.53
2019-02-02T05:56:59.089Z,99687.56
2019-02-02T05:59:33.921Z,99685.86
2019-02-02T06:02:09.661Z,99691.30
2019-02-02T06:04:44.475Z,99697.21
2019-02-02T06:07:19.277Z,99697.86
2019-02-02T06:09:54.118Z,99698.44
2019-02-02T06:12:28.915Z,99713.52
2019-02-02T06:15:03.772Z,99717.60
2019-02-02T06:17:38.600Z,99713.87
2019-02-02T06:20:13.649Z,99715.33
2019-02-02T06:22:48.449Z,99702.69
2019-02-02T06:25:23.363Z,99703.02
2019-02-02T06:27:58.175Z,99700.31
2019-02-02T06:30:33.149Z,99709.34
2019-02-02T06:33:08.955Z,99716.89
2019-02-02T06:35:43.791Z,99716.48
2019-02-02T06:38:18.494Z,99722.77
2019-02-02T06:40:53.375Z,99721.89
2019-02-02T06:43:30.273Z,99723.34
2019-02-02T06:46:04.737Z,99725.11
2019-02-02T06:48:39.453Z,99730.31
2019-02-02T06:51:16.083Z,99737.72
2019-02-02T06:53:56.926Z,99743.00
2019-02-02T06:56:32.847Z,99742.86
2019-02-02T06:59:07.747Z,99748.02
2019-02-02T07:01:42.569Z,99753.24
2019-02-02T07:04:17.411Z,99753.15
2019-02-02T07:06:52.331Z,99757.45
2019-02-02T07:09:27.139Z,99761.55
2019-02-02T07:12:01.986Z,99765.80
2019-02-02T07:14:36.715Z,99768.30
2019-02-02T07:17:11.566Z,99777.22
2019-02-02T07:19:46.401Z,99777.56
2019-02-02T07:22:21.641Z,99784.84
2019-02-02T07:24:56.616Z,99788.64
2019-02-02T07:27:31.461Z,99797.38
2019-02-02T07:30:12.811Z,99804.06
2019-02-02T07:32:47.683Z,99814.64
2019-02-02T07:35:23.020Z,99817.20
2019-02-02T07:37:58.831Z,99817.14
2019-02-02T07:40:33.687Z,99829.03
2019-02-02T07:43:08.509Z,99832.16
2019-02-02T07:45:43.389Z,99834.27
2019-02-02T07:48:18.311Z,99837.58
2019-02-02T07:50:55.609Z,99847.84
2019-02-02T07:53:30.463Z,99847.75
2019-02-02T07:56:05.707Z,99860.61
2019-02-02T07:58:40.577Z,99857.47
2019-02-02T08:01:15.379Z,99857.37
2019-02-02T08:03:53.047Z,99865.88
2019-02-02T08:06:27.936Z,99872.82
2019-02-02T08:09:03.546Z,99878.22
2019-02-02T08:11:38.342Z,99886.67
2019-02-02T08:14:19.211Z,99886.07
2019-02-02T08:16:54.013Z,99890.16
2019-02-02T08:19:32.917Z,99892.98
2019-02-02T08:22:09.413Z,99898.94
2019-02-02T08:24:44.427Z,99904.13
2019-02-02T08:27:19.224Z,99899.12
2019-02-02T08:29:54.094Z,99893.06
2019-02-02T08:32:28.890Z,99892.45
2019-02-02T08:35:03.737Z,99904.71
2019-02-02T08:37:39.947Z,99894.73
2019-02-02T08:40:17.898Z,99886.78
2019-02-02T08:42:52.906Z,99885.77
2019-02-02T08:45:27.890Z,99891.41
2019-02-02T08:48:02.827Z,99882.19
2019-02-02T08:50:39.610Z,99884.16
2019-02-02T08:53:14.493Z,99883.21
2019-02-02T08:55:51.893Z,99887.80
2019-02-02T08:58:25.981Z,99886.07
2019-02-02T09:01:04.292Z,99893.79
2019-02-02T09:03:37.426Z,99892.44
2019-02-02T09:06:12.501Z,99897.88
2019-02-02T09:08:47.373Z,99912.41
2019-02-02T09:11:24.180Z,99903.15
2019-02-02T09:13:59.077Z,99916.48
2019-02-02T09:16:33.972Z,99916.65
2019-02-02T09:19:08.816Z,99916.56
2019-02-02T09:21:43.879Z,99925.71
2019-02-02T09:24:19.553Z,99922.66
2019-02-02T09:26:55.522Z,99928.30
2019-02-02T09:29:31.157Z,99927.62
2019-02-02T09:32:09.868Z,99935.31
2019-02-02T09:34:45.571Z,99938.66
2019-02-02T09:37:21.779Z,99945.97
2019-02-02T09:39:56.637Z,99940.69
2019-02-02T09:42:31.521Z,99954.66
2019-02-02T09:45:09.958Z,99960.67
2019-02-02T09:47:44.852Z,99968.40
2019-02-02T09:50:23.403Z,99969.09
2019-02-02T09:52:58.765Z,99971.88
2019-02-02T09:55:35.149Z,99977.66
2019-02-02T09:58:12.503Z,99981.20
2019-02-02T10:00:47.582Z,99980.80
2019-02-02T10:03:22.681Z,99982.55
2019-02-02T10:05:59.205Z,99982.66
2019-02-02T10:08:34.156Z,99986.60
2019-02-02T10:11:09.228Z,99992.27
2019-02-02T10:13:45.775Z,99996.55
2019-02-02T10:16:20.744Z,99996.59
2019-02-02T10:18:55.769Z,99994.52
2019-02-02T10:21:30.677Z,99992.95
2019-02-02T10:24:05.540Z,100007.89
2019-02-02T10:26:40.400Z,100011.53
2019-02-02T10:29:15.221Z,100017.10
2019-02-02T10:31:50.089Z,100011.86
2019-02-02T10:34:25.237Z,100009.53
2019-02-02T10:37:00.061Z,100010.61
2019-02-02T10:39:35.097Z,100005.16
2019-02-02T10:42:10.233Z,100010.97
2019-02-02T10:44:45.229Z,100005.81
2019-02-02T10:47:20.055Z,100002.00
2019-02-02T10:49:54.900Z,100005.95
2019-02-02T10:52:29.933Z,100007.73
2019-02-02T10:55:05.570Z,100003.09
2019-02-02T10:57:40.433Z,100006.59
2019-02-02T11:00:19.254Z,100006.98
2019-02-02T11:02:54.196Z,100006.56
2019-02-02T11:05:29.190Z,100007.23
2019-02-02T11:08:04.606Z,100006.14
2019-02-02T11:10:39.814Z,100016.66
2019-02-02T11:13:16.424Z,100015.73
2019-02-02T11:15:52.444Z,100012.94
2019-02-02T11:18:28.319Z,100017.83
2019-02-02T11:21:06.007Z,100020.09
2019-02-02T11:23:40.950Z,100026.98
2019-02-02T11:26:15.987Z,100026.89
2019-02-02T11:28:50.991Z,100024.88
2019-02-02T11:31:25.937Z,100026.20
2019-02-02T11:34:00.787Z,100025.22
2019-02-02T11:36:35.768Z,100027.20
2019-02-02T11:39:11.387Z,100027.87
2019-02-02T11:41:46.150Z,100031.03
2019-02-02T11:44:20.843Z,100029.15
2019-02-02T11:46:55.707Z,100031.38
2019-02-02T11:49:30.565Z,100027.05
2019-02-02T11:52:05.469Z,100024.87
2019-02-02T11:54:40.344Z,100023.09
2019-02-02T11:57:15.226Z,100023.09
2019-02-02T11:59:50.054Z,100030.87
2019-02-02T12:02:24.870Z,100030.31
2019-02-02T12:04:59.830Z,100030.24
2019-02-02T12:07:35.555Z,100030.52
2019-02-02T12:10:12.804Z,100039.03
2019-02-02T12:12:48.576Z,100046.38
2019-02-02T12:15:23.614Z,100053.36
2019-02-02T12:17:58.484Z,100055.02
2019-02-02T12:20:33.792Z,100065.11
2019-02-02T12:23:08.874Z,100063.59
2019-02-02T12:25:43.770Z,100064.17
2019-02-02T12:28:18.641Z,100066.25
2019-02-02T12:30:53.518Z,100077.86
2019-02-02T12:33:29.299Z,100076.42
2019-02-02T12:36:05.165Z,100080.82
2019-02-02T12:38:40.048Z,100076.72
2019-02-02T12:41:17.143Z,100076.72
2019-02-02T12:43:54.446Z,100082.69
2019-02-02T12:46:29.771Z,100081.23
2019-02-02T12:49:07.107Z,100084.41
2019-02-02T12:51:42.400Z,100086.38
2019-02-02T12:54:17.254Z,100091.47
2019-02-02T12:56:52.134Z,100088.33
2019-02-02T12:59:27.015Z,100090.83
2019-02-02T13:02:02.041Z,100089.98
2019-02-02T13:04:40.257Z,100094.30
2019-02-02T13:07:16.158Z,100087.30
2019-02-02T13:09:51.143Z,100093.30
2019-02-02T13:12:26.002Z,100094.39
2019-02-02T13:15:01.266Z,100096.04
2019-02-02T13:17:36.101Z,100102.16
2019-02-02T13:20:12.092Z,100105.97
2019-02-02T13:22:47.304Z,100107.21
2019-02-02T13:25:24.035Z,100114.27
2019-02-02T13:28:04.310Z,100113.61
2019-02-02T13:30:39.199Z,100121.62
2019-02-02T13:33:14.190Z,100124.08
2019-02-02T13:35:50.227Z,100127.45
2019-02-02T13:38:24.966Z,100129.78
2019-02-02T13:40:59.727Z,100137.27
2019-02-02T13:43:34.637Z,100145.56
2019-02-02T13:46:09.584Z,100141.87
2019-02-02T13:48:44.525Z,100142.93
2019-02-02T13:51:19.428Z,100131.56
2019-02-02T13:53:54.362Z,100138.52
2019-02-02T13:56:29.194Z,100138.15
2019-02-02T13:59:04.118Z,100136.73
2019-02-02T14:01:42.271Z,100143.75
2019-02-02T14:04:15.598Z,100147.75
2019-02-02T14:06:54.399Z,100148.99
2019-02-02T14:09:37.198Z,100153.30
2019-02-02T14:12:12.128Z,100160.82
2019-02-02T14:14:47.118Z,100165.02
2019-02-02T14:17:21.977Z,100167.92
2019-02-02T14:19:56.836Z,100171.98
2019-02-02T14:22:31.924Z,100186.96
2019-02-02T14:25:07.818Z,100179.37
2019-02-02T14:27:43.267Z,100188.78
2019-02-02T14:30:23.607Z,100192.17
2019-02-02T14:32:58.482Z,100197.00
2019-02-02T14:35:33.324Z,100202.61
2019-02-02T14:38:08.182Z,100208.30
2019-02-02T14:40:45.629Z,100215.42
2019-02-02T14:43:20.480Z,100212.34
2019-02-02T14:45:55.234Z,100220.22
2019-02-02T14:48:30.084Z,100215.17
2019-02-02T14:51:05.119Z,100224.83
2019-02-02T14:53:40.080Z,100226.88
2019-02-02T14:56:14.908Z,100228.39
2019-02-02T14:58:49.832Z,100231.48
2019-02-02T15:01:24.639Z,100238.75
2019-02-02T15:03:59.578Z,100244.38
2019-02-02T15:06:34.565Z,100246.53
2019-02-02T15:09:10.060Z,100253.19
2019-02-02T15:11:44.882Z,100259.12
2019-02-02T15:14:19.728Z,100266.80
2019-02-02T15:16:54.509Z,100267.69
2019-02-02T15:19:29.352Z,100277.66
2019-02-02T15:22:04.192Z,100279.80
2019-02-02T15:24:39.054Z,100280.41
2019-02-02T15:27:14.802Z,100286.58
2019-02-02T15:29:49.586Z,100287.70
2019-02-02T15:32:24.531Z,100291.36
2019-02-02T15:34:59.387Z,100301.75
2019-02-02T15:37:34.299Z,100301.14
2019-02-02T15:40:10.830Z,100299.46
2019-02-02T15:42:45.690Z,100307.37
2019-02-02T15:45:23.156Z,100310.27
2019-02-02T15:47:58.102Z,100312.04
2019-02-02T15:50:33.082Z,100316.05
2019-02-02T15:53:07.989Z,100315.66
2019-02-02T15:55:43.130Z,100317.91
2019-02-02T15:58:18.752Z,100327.93
2019-02-02T16:00:54.083Z,100335.94
2019-02-02T16:03:29.247Z,100339.30
2019-02-02T16:06:04.256Z,100345.73
2019-02-02T16:08:39.300Z,100348.47
2019-02-02T16:11:14.174Z,100348.33
2019-02-02T16:13:48.998Z,100355.24
2019-02-02T16:16:23.906Z,100365.63
2019-02-02T16:18:58.861Z,100371.19
2019-02-02T16:21:35.338Z,100377.09
2019-02-02T16:24:13.071Z,100377.54
2019-02-02T16:26:48.746Z,100379.81
2019-02-02T16:29:23.665Z,100386.28
2019-02-02T16:32:03.571Z,100391.45
2019-02-02T16:34:38.410Z,100392.71
2019-02-02T16:37:14.858Z,100397.55
2019-02-02T16:39:49.752Z,100397.03
2019-02-02T16:42:24.806Z,100395.56
2019-02-02T16:44:59.651Z,100405.27
2019-02-02T16:47:34.535Z,100416.04
2019-02-02T16:50:12.774Z,100423.03
2019-02-02T16:52:48.015Z,100430.84
2019-02-02T16:55:22.866Z,100434.34
2019-02-02T16:57:57.762Z,100438.70
2019-02-02T17:00:33.791Z,100445.65
2019-02-02T17:03:11.323Z,100453.42
2019-02-02T17:05:46.225Z,100452.12
2019-02-02T17:08:21.122Z,100454.13
2019-02-02T17:10:55.846Z,100458.64
2019-02-02T17:13:31.564Z,100458.64
2019-02-02T17:16:06.509Z,100468.89
2019-02-02T17:18:41.374Z,100474.70
2019-02-02T17:21:16.236Z,100479.48
2019-02-02T17:23:51.108Z,100480.66
2019-02-02T17:26:26.061Z,100485.16
2019-02-02T17:29:00.940Z,100493.23
2019-02-02T17:31:35.858Z,100492.83
2019-02-02T17:34:10.846Z,100493.14
2019-02-02T17:36:45.636Z,100502.70
2019-02-02T17:39:20.627Z,100510.68
2019-02-02T17:41:55.363Z,100511.86
2019-02-02T17:44:30.241Z,100512.46
2019-02-02T17:47:05.194Z,100510.77
2019-02-02T17:49:40.069Z,100520.02
2019-02-02T17:52:16.657Z,100521.98
2019-02-02T17:54:51.515Z,100523.30
2019-02-02T17:57:26.473Z,100531.36
2019-02-02T18:00:01.519Z,100534.47
2019-02-02T18:02:36.307Z,100543.05
2019-02-02T18:05:11.725Z,100540.95
2019-02-02T18:07:46.639Z,100547.11
2019-02-02T18:10:21.550Z,100545.70
2019-02-02T18:12:56.450Z,100549.50
2019-02-02T18:15:31.534Z,100556.77
2019-02-02T18:18:06.927Z,100563.64
2019-02-02T18:20:41.799Z,100565.81
2019-02-02T18:23:18.414Z,100576.93
2019-02-02T18:25:58.565Z,100579.02
2019-02-02T18:28:33.495Z,100580.66
2019-02-02T18:31:08.419Z,100582.68
2019-02-02T18:33:43.307Z,100588.67
2019-02-02T18:36:18.198Z,100588.80
2019-02-02T18:38:53.121Z,100602.63
2019-02-02T18:41:27.958Z,100604.61
2019-02-02T18:44:03.109Z,100606.56
2019-02-02T18:46:38.178Z,100612.61
2019-02-02T18:49:13.038Z,100616.17
2019-02-02T18:51:47.909Z,100622.22
2019-02-02T18:54:22.771Z,100613.13
2019-02-02T18:56:58.596Z,100613.25
2019-02-02T18:59:33.569Z,100615.59
2019-02-02T19:02:08.499Z,100627.39
2019-02-02T19:04:43.469Z,100630.01
2019-02-02T19:07:18.514Z,100634.44
2019-02-02T19:09:54.363Z,100637.81
2019-02-02T19:12:31.718Z,100642.27
2019-02-02T19:15:08.811Z,100642.39
2019-02-02T19:17:43.881Z,100648.61
2019-02-02T19:20:20.517Z,100656.93
2019-02-02T19:22:57.142Z,100659.20
2019-02-02T19:25:33.425Z,100657.72
2019-02-02T19:28:09.475Z,100668.85
2019-02-02T19:30:44.411Z,100670.50
2019-02-02T19:33:19.307Z,100681.84
2019-02-02T19:35:54.189Z,100691.56
2019-02-02T19:38:29.083Z,100703.47
2019-02-02T19:41:04.940Z,100704.14
2019-02-02T19:43:39.811Z,100708.96
2019-02-02T19:46:14.604Z,100717.64
2019-02-02T19:48:49.493Z,100722.55
2019-02-02T19:51:24.347Z,100725.42
2019-02-02T19:53:59.139Z,100715.49
2019-02-02T19:56:34.057Z,100725.51
2019-02-02T19:59:08.831Z,100718.55
2019-02-02T20:01:43.684Z,100728.09
2019-02-02T20:04:18.529Z,100731.86
2019-02-02T20:06:53.440Z,100739.53
2019-02-02T20:09:28.394Z,100743.77
2019-02-02T20:12:03.294Z,100752.02
2019-02-02T20:14:38.156Z,100756.19
2019-02-02T20:17:14.652Z,100756.63
2019-02-02T20:19:49.633Z,100761.23
2019-02-02T20:22:24.535Z,100754.53
2019-02-02T20:24:59.393Z,100760.72
2019-02-02T20:27:34.305Z,100761.94
2019-02-02T20:30:16.009Z,100769.80
2019-02-02T20:32:50.839Z,100774.59
2019-02-02T20:35:25.940Z,100774.68
2019-02-02T20:38:00.671Z,100776.77
2019-02-02T20:40:35.527Z,100776.16
2019-02-02T20:43:10.378Z,100779.53
2019-02-02T20:45:45.231Z,100783.11
2019-02-02T20:48:20.118Z,100783.38
2019-02-02T20:50:54.889Z,100786.05
2019-02-02T20:53:29.745Z,100795.81
2019-02-02T20:56:04.631Z,100797.09
2019-02-02T20:58:39.481Z,100803.81
2019-02-02T21:01:14.361Z,100807.78
2019-02-02T21:03:49.103Z,100814.53
2019-02-02T21:06:24.072Z,100818.02
2019-02-02T21:08:58.929Z,100818.39
2019-02-02T21:11:34.467Z,100819.03
2019-02-02T21:14:09.264Z,100814.34
2019-02-02T21:16:45.087Z,100816.39
2019-02-02T21:19:19.907Z,100821.15
2019-02-02T21:21:54.690Z,100820.09
2019-02-02T21:24:29.532Z,100826.78
2019-02-02T21:27:04.486Z,100828.00
2019-02-02T21:29:39.242Z,100830.74
2019-02-02T21:32:14.171Z,100834.30
2019-02-02T21:34:48.924Z,100838.06
2019-02-02T21:37:23.839Z,100846.05
2019-02-02T21:39:59.107Z,100845.75
2019-02-02T21:42:35.086Z,100852.39
2019-02-02T21:45:11.733Z,100860.43
2019-02-02T21:47:49.574Z,100871.27
2019-02-02T21:50:25.139Z,100866.66
2019-02-02T21:53:00.204Z,100869.81
2019-02-02T21:55:35.076Z,100868.98
2019-02-02T21:58:09.967Z,100875.45
2019-02-02T22:00:45.199Z,100872.26
2019-02-02T22:03:20.174Z,100870.35
2019-02-02T22:05:54.953Z,100867.34
2019-02-02T22:08:30.223Z,100871.56
2019-02-02T22:11:05.097Z,100876.85
2019-02-02T22:13:39.985Z,100887.17
2019-02-02T22:16:14.833Z,100893.28
2019-02-02T22:18:49.685Z,100892.36
2019-02-02T22:21:24.437Z,100896.94
2019-02-02T22:24:01.761Z,100900.36
2019-02-02T22:26:38.664Z,100906.42
2019-02-02T22:29:14.085Z,100909.04
2019-02-02T22:31:49.026Z,100908.84
2019-02-02T22:34:25.009Z,100912.33
2019-02-02T22:37:00.014Z,100914.69
2019-02-02T22:39:34.911Z,100924.05
2019-02-02T22:42:09.757Z,100931.66
2019-02-02T22:44:44.499Z,100933.45
2019-02-02T22:47:19.330Z,100932.72
2019-02-02T22:49:54.323Z,100938.04
2019-02-02T22:52:29.184Z,100936.86
2019-02-02T22:55:05.364Z,100941.50
2019-02-02T22:57:40.256Z,100942.30
2019-02-02T23:00:58.284Z,100944.47
2019-02-02T23:04:04.766Z,100954.45
2019-02-02T23:07:52.835Z,100952.95
2019-02-02T23:11:23.314Z,100966.73
2019-02-02T23:14:50.933Z,100978.22
2019-02-02T23:17:25.776Z,100989.48
2019-02-02T23:20:00.955Z,100991.70
2019-02-02T23:22:36.942Z,101001.99
2019-02-02T23:25:11.799Z,101010.02
2019-02-02T23:27:46.650Z,101014.40
2019-02-02T23:30:21.990Z,101019.83
2019-02-02T23:32:56.855Z,101026.09
2019-02-02T23:35:31.754Z,101024.33
2019-02-02T23:38:06.724Z,101029.41
2019-02-02T23:40:41.732Z,101033.80
2019-02-02T23:43:16.502Z,101041.76
2019-02-02T23:45:51.332Z,101051.45
2019-02-02T23:48:26.160Z,101049.52
2019-02-02T23:51:00.898Z,101046.55
2019-02-02T23:53:35.715Z,101055.47
2019-02-02T23:56:10.539Z,101058.73
2019-02-02T23:58:45.305Z,101069.55
